Milford Center, Ohio
Current Conditions -  °F | °C
As of 8:33 AM on Saturday 22 Nov 2014 (Local Time) from KMRT Reporting Station
Overcast Overcast  
Wind Chill: 24°   Ceiling: 3300
Heat Index: 32°   Visibility: 7mi
Dew Point: 28°   Wind: 10mph
Humidity: 87%   Direction: 200°SSW
Pressure: 30.25"   Gusts: NA
Location:  40.18°N, 83.44°W
Report Text: KMRT 221333Z AUTO 20009KT 7SM SCT012 SCT020 OVC033 00/M02 A3025 RMK AO2 T00001020
Loading
Personal Weather Stations






























Interactive Weather Map New forecast layout! Learn more

10-Day Weather Forecast

Advertisements
Track Severe Weather on mobile